createdAt,value
2023-02-24T01:02:56.295Z,8.20
2023-02-24T01:22:41.213Z,8.38
2023-02-24T01:41:07.252Z,7.00
2023-02-24T01:47:33.586Z,7.96
2023-02-24T02:07:55.634Z,8.16
2023-02-24T04:00:07.245Z,5.93
2023-02-24T04:11:26.366Z,6.40
2023-02-24T04:16:29.104Z,6.04
2023-02-24T04:21:28.240Z,5.87
2023-02-24T04:26:25.369Z,7.51
2023-02-24T04:31:24.829Z,6.26
2023-02-24T04:36:20.660Z,7.27
2023-02-24T04:41:23.784Z,6.49
2023-02-24T04:46:17.544Z,6.83
2023-02-24T04:51:10.967Z,6.34
2023-02-24T04:56:09.452Z,7.59
2023-02-24T05:01:15.167Z,7.60
2023-02-24T05:06:17.500Z,7.67
2023-02-24T05:11:16.376Z,6.99
2023-02-24T05:16:13.013Z,6.42
2023-02-24T05:21:25.439Z,6.48
2023-02-24T05:26:22.628Z,6.84
2023-02-24T05:31:24.386Z,6.74
2023-02-24T05:36:22.975Z,6.83
2023-02-24T05:41:32.730Z,6.31
2023-02-24T05:46:32.734Z,7.39
2023-02-24T05:51:46.984Z,6.29
2023-02-24T05:56:45.234Z,7.18
2023-02-24T06:01:47.373Z,6.79
2023-02-24T06:06:44.895Z,7.36
2023-02-24T06:11:52.084Z,7.74
2023-02-24T06:16:52.257Z,7.03
2023-02-24T06:21:48.340Z,7.55
2023-02-24T06:26:51.091Z,8.24
2023-02-24T06:31:55.118Z,8.30
2023-02-24T06:36:54.145Z,7.37
2023-02-24T06:41:54.245Z,7.99
2023-02-24T06:47:02.308Z,8.54
2023-02-24T06:52:56.202Z,6.83
2023-02-24T06:58:08.728Z,8.19
2023-02-24T07:03:19.230Z,8.62
2023-02-24T07:08:38.490Z,7.38
2023-02-24T07:13:52.828Z,8.21
2023-02-24T07:18:52.350Z,7.21
2023-02-24T07:23:58.776Z,7.60
2023-02-24T07:28:58.881Z,8.95
2023-02-24T07:34:11.401Z,8.01
2023-02-24T07:39:09.722Z,8.32
2023-02-24T07:44:13.048Z,9.25
2023-02-24T07:49:09.663Z,9.27
2023-02-24T07:54:03.596Z,9.41
2023-02-24T07:59:00.494Z,9.57
2023-02-24T08:03:57.742Z,9.67
2023-02-24T08:08:59.318Z,9.89
2023-02-24T08:13:52.704Z,9.81
2023-02-24T08:18:49.201Z,9.91
2023-02-24T08:23:45.791Z,9.74
2023-02-24T08:28:39.511Z,9.87
2023-02-24T08:33:32.962Z,10.13
2023-02-24T08:38:28.521Z,10.11
2023-02-24T08:43:33.194Z,10.14
2023-02-24T08:48:32.562Z,10.24
2023-02-24T08:53:31.553Z,10.41
2023-02-24T08:58:28.118Z,10.44
2023-02-24T09:03:29.651Z,9.95
2023-02-24T09:08:24.340Z,10.02
2023-02-24T09:13:19.000Z,10.10
2023-02-24T09:18:14.586Z,9.79
2023-02-24T09:23:08.942Z,9.76
2023-02-24T09:28:09.014Z,9.88
2023-02-24T09:33:02.565Z,9.73
2023-02-24T09:38:00.334Z,9.31
2023-02-24T09:42:58.475Z,9.35
2023-02-24T09:47:57.250Z,9.28
2023-02-24T09:52:57.594Z,8.93
2023-02-24T09:58:43.280Z,8.32
2023-02-24T10:03:48.280Z,8.95
2023-02-24T10:08:47.552Z,8.94
2023-02-24T10:13:48.749Z,8.98
2023-02-24T10:18:47.003Z,8.81
2023-02-24T10:23:56.798Z,8.74
2023-02-24T10:28:58.576Z,8.99
2023-02-24T10:33:56.890Z,8.80
2023-02-24T10:38:50.897Z,9.03
2023-02-24T10:43:56.787Z,9.06
2023-02-24T10:48:53.556Z,8.86
2023-02-24T10:53:53.470Z,8.57
2023-02-24T10:58:56.780Z,8.98
2023-02-24T11:04:02.700Z,9.02
2023-02-24T11:09:19.142Z,8.42
2023-02-24T11:14:36.117Z,9.16
2023-02-24T11:19:33.954Z,9.11
2023-02-24T11:24:29.110Z,9.48
2023-02-24T11:29:39.757Z,9.39
2023-02-24T11:34:49.522Z,9.66
2023-02-24T11:39:53.370Z,10.15
2023-02-24T11:44:55.570Z,10.35
2023-02-24T11:49:55.028Z,10.49
2023-02-24T11:54:53.585Z,10.46
2023-02-24T11:59:54.106Z,10.52
2023-02-24T12:04:53.293Z,10.96
2023-02-24T12:09:54.951Z,10.70
2023-02-24T12:14:54.568Z,10.07
2023-02-24T12:19:57.568Z,10.75
2023-02-24T12:24:54.787Z,10.55
2023-02-24T12:29:57.290Z,10.70
2023-02-24T12:34:58.503Z,10.70
2023-02-24T12:40:05.716Z,10.54
2023-02-24T12:45:05.076Z,10.97
2023-02-24T12:50:19.155Z,10.55
2023-02-24T12:55:22.760Z,10.75
2023-02-24T13:00:25.136Z,10.98
2023-02-24T13:05:23.435Z,10.87
2023-02-24T13:10:30.710Z,11.19
2023-02-24T13:15:26.422Z,11.13
2023-02-24T13:20:32.591Z,11.43
2023-02-24T13:25:32.111Z,11.56
2023-02-24T13:30:29.841Z,11.39
2023-02-24T13:35:34.652Z,12.21
2023-02-24T13:40:29.571Z,12.32
2023-02-24T13:45:23.252Z,12.47
2023-02-24T13:50:26.381Z,12.52
2023-02-24T13:55:39.827Z,12.49
2023-02-24T14:00:52.544Z,12.07
2023-02-24T14:05:46.261Z,12.35
2023-02-24T14:10:47.279Z,12.59
2023-02-24T14:15:44.220Z,12.56
2023-02-24T14:20:39.789Z,12.55
2023-02-24T14:25:40.048Z,12.25
2023-02-24T14:30:37.486Z,12.38
2023-02-24T14:35:35.440Z,11.94
2023-02-24T14:40:29.159Z,12.18
2023-02-24T14:45:26.363Z,11.90
2023-02-24T14:50:25.643Z,11.68
2023-02-24T14:55:21.949Z,11.99
2023-02-24T15:00:24.155Z,11.93
2023-02-24T15:05:19.647Z,11.66
2023-02-24T15:10:22.714Z,11.25
2023-02-24T15:15:21.827Z,11.70
2023-02-24T15:20:33.801Z,11.28
2023-02-24T15:26:20.784Z,11.25
2023-02-24T15:45:57.567Z,9.33
2023-02-24T16:17:38.945Z,10.61
2023-02-24T18:40:00.207Z,7.38
2023-02-24T18:45:50.871Z,7.78
2023-02-24T18:51:20.467Z,7.38
2023-02-24T19:12:06.988Z,6.59
2023-02-24T23:30:58.680Z,4.81
2023-02-24T23:35:54.645Z,3.81
2023-02-24T23:40:53.069Z,4.46
2023-02-24T23:45:50.247Z,4.05
2023-02-24T23:50:48.990Z,4.16
2023-02-24T23:55:46.452Z,3.51
